sensor_id;sensor_type;location;lat;lon;timestamp;P1;durP1;ratioP1;P2;durP2;ratioP2
70814;SDS011;58428;49.478;10.986;2023-02-28T00:01:32;6.85;;;3.70;;
70814;SDS011;58428;49.478;10.986;2023-02-28T00:03:59;9.02;;;3.60;;
70814;SDS011;58428;49.478;10.986;2023-02-28T00:06:25;6.68;;;3.08;;
70814;SDS011;58428;49.478;10.986;2023-02-28T00:08:51;7.85;;;3.20;;
70814;SDS011;58428;49.478;10.986;2023-02-28T00:11:16;7.88;;;3.35;;
70814;SDS011;58428;49.478;10.986;2023-02-28T00:16:12;6.15;;;3.17;;
70814;SDS011;58428;49.478;10.986;2023-02-28T00:18:42;7.63;;;3.15;;
70814;SDS011;58428;49.478;10.986;2023-02-28T00:21:08;7.07;;;3.13;;
70814;SDS011;58428;49.478;10.986;2023-02-28T00:23:34;6.57;;;3.10;;
70814;SDS011;58428;49.478;10.986;2023-02-28T00:26:00;6.57;;;2.90;;
70814;SDS011;58428;49.478;10.986;2023-02-28T00:28:26;5.45;;;2.58;;
70814;SDS011;58428;49.478;10.986;2023-02-28T00:33:27;7.45;;;2.97;;
70814;SDS011;58428;49.478;10.986;2023-02-28T00:36:01;5.63;;;3.08;;
70814;SDS011;58428;49.478;10.986;2023-02-28T00:38:33;5.78;;;3.03;;
70814;SDS011;58428;49.478;10.986;2023-02-28T00:41:04;6.35;;;2.80;;
70814;SDS011;58428;49.478;10.986;2023-02-28T00:43:33;5.20;;;2.75;;
70814;SDS011;58428;49.478;10.986;2023-02-28T00:46:04;6.22;;;2.83;;
70814;SDS011;58428;49.478;10.986;2023-02-28T00:49:31;6.05;;;2.90;;
70814;SDS011;58428;49.478;10.986;2023-02-28T00:52:03;6.38;;;3.00;;
70814;SDS011;58428;49.478;10.986;2023-02-28T00:54:31;6.72;;;2.85;;
70814;SDS011;58428;49.478;10.986;2023-02-28T00:57:02;6.25;;;2.67;;
70814;SDS011;58428;49.478;10.986;2023-02-28T00:59:29;7.25;;;3.60;;
70814;SDS011;58428;49.478;10.986;2023-02-28T01:01:55;6.78;;;3.20;;
70814;SDS011;58428;49.478;10.986;2023-02-28T01:04:31;6.97;;;2.88;;
70814;SDS011;58428;49.478;10.986;2023-02-28T01:09:21;4.40;;;1.93;;
70814;SDS011;58428;49.478;10.986;2023-02-28T01:11:50;6.88;;;2.90;;
70814;SDS011;58428;49.478;10.986;2023-02-28T01:14:18;5.65;;;3.13;;
70814;SDS011;58428;49.478;10.986;2023-02-28T01:16:45;7.25;;;3.55;;
70814;SDS011;58428;49.478;10.986;2023-02-28T01:19:12;7.15;;;3.03;;
70814;SDS011;58428;49.478;10.986;2023-02-28T01:21:38;8.68;;;3.22;;
70814;SDS011;58428;49.478;10.986;2023-02-28T01:24:04;8.60;;;3.55;;
70814;SDS011;58428;49.478;10.986;2023-02-28T01:28:57;7.38;;;3.33;;
70814;SDS011;58428;49.478;10.986;2023-02-28T01:31:23;9.85;;;3.53;;
70814;SDS011;58428;49.478;10.986;2023-02-28T01:33:50;7.32;;;3.65;;
70814;SDS011;58428;49.478;10.986;2023-02-28T01:36:20;6.32;;;3.10;;
70814;SDS011;58428;49.478;10.986;2023-02-28T01:38:47;7.63;;;3.30;;
70814;SDS011;58428;49.478;10.986;2023-02-28T01:41:19;7.15;;;3.90;;
70814;SDS011;58428;49.478;10.986;2023-02-28T01:46:10;5.18;;;2.33;;
70814;SDS011;58428;49.478;10.986;2023-02-28T01:48:38;5.38;;;2.63;;
70814;SDS011;58428;49.478;10.986;2023-02-28T01:51:13;8.65;;;3.28;;
70814;SDS011;58428;49.478;10.986;2023-02-28T01:53:43;5.95;;;3.40;;
70814;SDS011;58428;49.478;10.986;2023-02-28T01:56:13;7.05;;;3.53;;
70814;SDS011;58428;49.478;10.986;2023-02-28T01:58:46;6.72;;;3.20;;
70814;SDS011;58428;49.478;10.986;2023-02-28T02:01:13;8.73;;;3.55;;
70814;SDS011;58428;49.478;10.986;2023-02-28T02:03:49;7.78;;;3.35;;
70814;SDS011;58428;49.478;10.986;2023-02-28T02:06:23;7.43;;;3.10;;
70814;SDS011;58428;49.478;10.986;2023-02-28T02:08:51;6.40;;;2.75;;
70814;SDS011;58428;49.478;10.986;2023-02-28T02:11:17;8.13;;;3.53;;
70814;SDS011;58428;49.478;10.986;2023-02-28T02:34:08;9.43;;;3.90;;
70814;SDS011;58428;49.478;10.986;2023-02-28T02:36:48;8.48;;;3.80;;
70814;SDS011;58428;49.478;10.986;2023-02-28T02:39:58;8.38;;;3.88;;
70814;SDS011;58428;49.478;10.986;2023-02-28T02:48:11;7.70;;;3.70;;
70814;SDS011;58428;49.478;10.986;2023-02-28T02:50:46;8.65;;;3.85;;
70814;SDS011;58428;49.478;10.986;2023-02-28T02:53:15;7.13;;;3.60;;
70814;SDS011;58428;49.478;10.986;2023-02-28T02:55:48;7.18;;;3.20;;
70814;SDS011;58428;49.478;10.986;2023-02-28T02:58:20;7.15;;;3.38;;
70814;SDS011;58428;49.478;10.986;2023-02-28T03:00:54;8.68;;;3.65;;
70814;SDS011;58428;49.478;10.986;2023-02-28T03:03:24;8.18;;;3.78;;
70814;SDS011;58428;49.478;10.986;2023-02-28T03:05:59;8.55;;;3.42;;
70814;SDS011;58428;49.478;10.986;2023-02-28T03:08:27;8.02;;;3.80;;
70814;SDS011;58428;49.478;10.986;2023-02-28T03:11:03;9.52;;;4.35;;
70814;SDS011;58428;49.478;10.986;2023-02-28T03:19:42;6.85;;;3.20;;
70814;SDS011;58428;49.478;10.986;2023-02-28T03:36:35;9.38;;;4.22;;
70814;SDS011;58428;49.478;10.986;2023-02-28T03:39:13;7.60;;;3.83;;
70814;SDS011;58428;49.478;10.986;2023-02-28T03:41:44;8.68;;;3.90;;
70814;SDS011;58428;49.478;10.986;2023-02-28T03:44:24;8.57;;;3.42;;
70814;SDS011;58428;49.478;10.986;2023-02-28T03:47:16;11.48;;;4.10;;
70814;SDS011;58428;49.478;10.986;2023-02-28T03:49:52;9.50;;;3.72;;
70814;SDS011;58428;49.478;10.986;2023-02-28T03:52:50;9.43;;;4.10;;
70814;SDS011;58428;49.478;10.986;2023-02-28T03:55:20;9.30;;;3.67;;
70814;SDS011;58428;49.478;10.986;2023-02-28T04:00:52;10.55;;;4.05;;
70814;SDS011;58428;49.478;10.986;2023-02-28T04:03:24;9.88;;;4.30;;
70814;SDS011;58428;49.478;10.986;2023-02-28T04:05:54;10.00;;;4.70;;
70814;SDS011;58428;49.478;10.986;2023-02-28T04:08:23;8.80;;;4.45;;
70814;SDS011;58428;49.478;10.986;2023-02-28T04:10:54;9.45;;;4.50;;
70814;SDS011;58428;49.478;10.986;2023-02-28T04:13:26;11.57;;;5.03;;
70814;SDS011;58428;49.478;10.986;2023-02-28T04:15:52;8.23;;;4.20;;
70814;SDS011;58428;49.478;10.986;2023-02-28T04:18:21;11.13;;;5.72;;
70814;SDS011;58428;49.478;10.986;2023-02-28T04:20:47;10.80;;;5.28;;
70814;SDS011;58428;49.478;10.986;2023-02-28T04:25:39;10.63;;;4.43;;
70814;SDS011;58428;49.478;10.986;2023-02-28T04:30:31;9.73;;;4.72;;
70814;SDS011;58428;49.478;10.986;2023-02-28T04:32:57;9.60;;;5.00;;
70814;SDS011;58428;49.478;10.986;2023-02-28T04:35:23;10.05;;;5.03;;
70814;SDS011;58428;49.478;10.986;2023-02-28T04:37:49;12.45;;;5.03;;
70814;SDS011;58428;49.478;10.986;2023-02-28T04:40:15;10.05;;;5.30;;
70814;SDS011;58428;49.478;10.986;2023-02-28T04:42:40;10.02;;;5.10;;
70814;SDS011;58428;49.478;10.986;2023-02-28T04:45:06;11.95;;;4.88;;
70814;SDS011;58428;49.478;10.986;2023-02-28T04:47:35;11.68;;;4.20;;
70814;SDS011;58428;49.478;10.986;2023-02-28T04:50:03;8.95;;;4.90;;
70814;SDS011;58428;49.478;10.986;2023-02-28T04:52:34;8.80;;;4.00;;
70814;SDS011;58428;49.478;10.986;2023-02-28T04:55:02;10.40;;;5.47;;
70814;SDS011;58428;49.478;10.986;2023-02-28T04:57:28;11.20;;;5.07;;
70814;SDS011;58428;49.478;10.986;2023-02-28T04:59:56;8.57;;;4.70;;
70814;SDS011;58428;49.478;10.986;2023-02-28T05:04:49;9.93;;;4.28;;
70814;SDS011;58428;49.478;10.986;2023-02-28T05:09:41;8.77;;;4.80;;
70814;SDS011;58428;49.478;10.986;2023-02-28T05:14:34;10.05;;;4.78;;
70814;SDS011;58428;49.478;10.986;2023-02-28T05:17:03;11.70;;;4.60;;
70814;SDS011;58428;49.478;10.986;2023-02-28T05:19:28;9.05;;;4.40;;
70814;SDS011;58428;49.478;10.986;2023-02-28T05:21:54;9.68;;;4.63;;
70814;SDS011;58428;49.478;10.986;2023-02-28T05:24:19;10.93;;;4.75;;
70814;SDS011;58428;49.478;10.986;2023-02-28T05:26:48;9.75;;;4.88;;
70814;SDS011;58428;49.478;10.986;2023-02-28T05:29:17;10.48;;;4.90;;
70814;SDS011;58428;49.478;10.986;2023-02-28T05:31:46;12.13;;;5.43;;
70814;SDS011;58428;49.478;10.986;2023-02-28T05:34:14;10.75;;;5.70;;
70814;SDS011;58428;49.478;10.986;2023-02-28T05:36:40;10.88;;;5.10;;
70814;SDS011;58428;49.478;10.986;2023-02-28T05:39:06;10.80;;;5.35;;
70814;SDS011;58428;49.478;10.986;2023-02-28T05:41:37;13.18;;;5.07;;
70814;SDS011;58428;49.478;10.986;2023-02-28T05:44:03;10.27;;;4.78;;
70814;SDS011;58428;49.478;10.986;2023-02-28T05:46:30;13.82;;;5.50;;
70814;SDS011;58428;49.478;10.986;2023-02-28T05:48:55;11.05;;;5.07;;
70814;SDS011;58428;49.478;10.986;2023-02-28T05:51:24;10.45;;;4.65;;
70814;SDS011;58428;49.478;10.986;2023-02-28T05:56:17;11.18;;;4.53;;
70814;SDS011;58428;49.478;10.986;2023-02-28T05:58:43;14.35;;;6.15;;
70814;SDS011;58428;49.478;10.986;2023-02-28T06:04:04;12.75;;;5.05;;
70814;SDS011;58428;49.478;10.986;2023-02-28T06:06:31;11.10;;;4.63;;
70814;SDS011;58428;49.478;10.986;2023-02-28T06:09:02;11.57;;;5.65;;
70814;SDS011;58428;49.478;10.986;2023-02-28T06:11:31;11.18;;;5.10;;
70814;SDS011;58428;49.478;10.986;2023-02-28T06:14:00;12.48;;;5.47;;
70814;SDS011;58428;49.478;10.986;2023-02-28T06:16:28;13.48;;;5.80;;
70814;SDS011;58428;49.478;10.986;2023-02-28T06:18:56;12.93;;;5.25;;
70814;SDS011;58428;49.478;10.986;2023-02-28T06:21:26;11.80;;;5.50;;
70814;SDS011;58428;49.478;10.986;2023-02-28T06:23:56;11.45;;;5.50;;
70814;SDS011;58428;49.478;10.986;2023-02-28T06:26:25;11.00;;;5.50;;
70814;SDS011;58428;49.478;10.986;2023-02-28T06:28:50;12.90;;;5.28;;
70814;SDS011;58428;49.478;10.986;2023-02-28T06:31:16;13.45;;;6.32;;
70814;SDS011;58428;49.478;10.986;2023-02-28T06:33:43;11.60;;;5.20;;
70814;SDS011;58428;49.478;10.986;2023-02-28T06:36:11;12.50;;;6.10;;
70814;SDS011;58428;49.478;10.986;2023-02-28T06:38:39;13.13;;;5.78;;
70814;SDS011;58428;49.478;10.986;2023-02-28T06:41:06;12.32;;;5.25;;
70814;SDS011;58428;49.478;10.986;2023-02-28T06:43:37;11.88;;;5.10;;
70814;SDS011;58428;49.478;10.986;2023-02-28T06:46:07;11.77;;;5.47;;
70814;SDS011;58428;49.478;10.986;2023-02-28T06:48:36;12.43;;;5.53;;
70814;SDS011;58428;49.478;10.986;2023-02-28T06:51:08;12.95;;;5.85;;
70814;SDS011;58428;49.478;10.986;2023-02-28T06:53:38;9.10;;;4.88;;
70814;SDS011;58428;49.478;10.986;2023-02-28T06:56:07;12.88;;;5.88;;
70814;SDS011;58428;49.478;10.986;2023-02-28T06:58:34;12.48;;;5.80;;
70814;SDS011;58428;49.478;10.986;2023-02-28T07:01:02;10.70;;;5.68;;
70814;SDS011;58428;49.478;10.986;2023-02-28T07:03:30;12.25;;;5.97;;
70814;SDS011;58428;49.478;10.986;2023-02-28T07:06:01;13.93;;;5.95;;
70814;SDS011;58428;49.478;10.986;2023-02-28T07:08:26;11.13;;;5.43;;
70814;SDS011;58428;49.478;10.986;2023-02-28T07:10:55;13.23;;;5.90;;
70814;SDS011;58428;49.478;10.986;2023-02-28T07:13:22;12.23;;;5.95;;
70814;SDS011;58428;49.478;10.986;2023-02-28T07:15:59;12.57;;;5.30;;
70814;SDS011;58428;49.478;10.986;2023-02-28T07:18:30;12.00;;;5.28;;
70814;SDS011;58428;49.478;10.986;2023-02-28T07:20:56;11.48;;;5.15;;
70814;SDS011;58428;49.478;10.986;2023-02-28T07:23:24;11.13;;;5.20;;
70814;SDS011;58428;49.478;10.986;2023-02-28T07:25:52;11.65;;;5.68;;
70814;SDS011;58428;49.478;10.986;2023-02-28T07:28:18;11.85;;;4.80;;
70814;SDS011;58428;49.478;10.986;2023-02-28T07:30:49;7.63;;;4.10;;
70814;SDS011;58428;49.478;10.986;2023-02-28T07:33:17;10.68;;;5.55;;
70814;SDS011;58428;49.478;10.986;2023-02-28T07:35:46;11.43;;;5.07;;
70814;SDS011;58428;49.478;10.986;2023-02-28T07:40:40;11.20;;;4.63;;
70814;SDS011;58428;49.478;10.986;2023-02-28T07:43:06;14.77;;;6.28;;
70814;SDS011;58428;49.478;10.986;2023-02-28T07:45:34;11.65;;;5.63;;
70814;SDS011;58428;49.478;10.986;2023-02-28T07:48:01;13.32;;;6.30;;
70814;SDS011;58428;49.478;10.986;2023-02-28T07:50:29;13.02;;;6.07;;
70814;SDS011;58428;49.478;10.986;2023-02-28T07:52:57;12.90;;;6.13;;
70814;SDS011;58428;49.478;10.986;2023-02-28T07:55:26;14.52;;;6.57;;
70814;SDS011;58428;49.478;10.986;2023-02-28T07:57:53;14.15;;;5.47;;
70814;SDS011;58428;49.478;10.986;2023-02-28T08:00:20;12.25;;;6.10;;
70814;SDS011;58428;49.478;10.986;2023-02-28T08:02:47;12.30;;;6.15;;
70814;SDS011;58428;49.478;10.986;2023-02-28T08:05:14;11.88;;;5.55;;
70814;SDS011;58428;49.478;10.986;2023-02-28T08:07:40;15.60;;;6.78;;
70814;SDS011;58428;49.478;10.986;2023-02-28T08:10:06;14.15;;;6.18;;
70814;SDS011;58428;49.478;10.986;2023-02-28T08:12:36;14.35;;;6.07;;
70814;SDS011;58428;49.478;10.986;2023-02-28T08:15:03;13.80;;;5.97;;
70814;SDS011;58428;49.478;10.986;2023-02-28T08:17:30;15.05;;;6.00;;
70814;SDS011;58428;49.478;10.986;2023-02-28T08:19:56;11.35;;;5.80;;
70814;SDS011;58428;49.478;10.986;2023-02-28T08:24:50;14.65;;;5.95;;
70814;SDS011;58428;49.478;10.986;2023-02-28T08:27:16;12.90;;;6.78;;
70814;SDS011;58428;49.478;10.986;2023-02-28T08:29:42;13.55;;;6.70;;
70814;SDS011;58428;49.478;10.986;2023-02-28T08:32:09;13.60;;;6.25;;
70814;SDS011;58428;49.478;10.986;2023-02-28T08:34:35;14.82;;;7.20;;
70814;SDS011;58428;49.478;10.986;2023-02-28T08:37:03;11.98;;;6.30;;
70814;SDS011;58428;49.478;10.986;2023-02-28T08:39:29;13.50;;;6.38;;
70814;SDS011;58428;49.478;10.986;2023-02-28T08:41:54;14.27;;;6.32;;
70814;SDS011;58428;49.478;10.986;2023-02-28T08:44:20;12.02;;;6.30;;
70814;SDS011;58428;49.478;10.986;2023-02-28T08:46:46;12.23;;;6.03;;
70814;SDS011;58428;49.478;10.986;2023-02-28T08:49:12;14.90;;;6.88;;
70814;SDS011;58428;49.478;10.986;2023-02-28T08:51:38;13.95;;;6.47;;
70814;SDS011;58428;49.478;10.986;2023-02-28T08:54:04;12.25;;;5.80;;
70814;SDS011;58428;49.478;10.986;2023-02-28T08:56:31;12.60;;;6.40;;
70814;SDS011;58428;49.478;10.986;2023-02-28T08:58:57;12.18;;;6.10;;
70814;SDS011;58428;49.478;10.986;2023-02-28T09:01:26;11.48;;;5.35;;
70814;SDS011;58428;49.478;10.986;2023-02-28T09:03:54;12.43;;;5.85;;
70814;SDS011;58428;49.478;10.986;2023-02-28T09:06:24;11.45;;;6.60;;
70814;SDS011;58428;49.478;10.986;2023-02-28T09:08:53;13.35;;;6.10;;
70814;SDS011;58428;49.478;10.986;2023-02-28T09:11:25;13.23;;;6.70;;
70814;SDS011;58428;49.478;10.986;2023-02-28T09:13:50;13.55;;;6.43;;
70814;SDS011;58428;49.478;10.986;2023-02-28T09:16:18;12.75;;;6.28;;
70814;SDS011;58428;49.478;10.986;2023-02-28T09:18:44;13.98;;;6.70;;
70814;SDS011;58428;49.478;10.986;2023-02-28T09:21:12;13.82;;;6.22;;
70814;SDS011;58428;49.478;10.986;2023-02-28T09:23:40;14.60;;;6.80;;
70814;SDS011;58428;49.478;10.986;2023-02-28T09:26:06;12.07;;;5.82;;
70814;SDS011;58428;49.478;10.986;2023-02-28T09:28:32;11.68;;;5.93;;
70814;SDS011;58428;49.478;10.986;2023-02-28T09:30:57;13.23;;;6.78;;
70814;SDS011;58428;49.478;10.986;2023-02-28T09:33:24;12.55;;;6.53;;
70814;SDS011;58428;49.478;10.986;2023-02-28T09:38:22;12.82;;;6.10;;
70814;SDS011;58428;49.478;10.986;2023-02-28T09:40:52;12.32;;;5.65;;
70814;SDS011;58428;49.478;10.986;2023-02-28T09:43:27;15.45;;;6.72;;
70814;SDS011;58428;49.478;10.986;2023-02-28T09:48:45;14.25;;;6.57;;
70814;SDS011;58428;49.478;10.986;2023-02-28T09:52:03;11.57;;;6.47;;
70814;SDS011;58428;49.478;10.986;2023-02-28T09:54:16;15.20;;;7.20;;
70814;SDS011;58428;49.478;10.986;2023-02-28T09:56:44;12.27;;;6.55;;
70814;SDS011;58428;49.478;10.986;2023-02-28T10:02:17;14.00;;;8.20;;
70814;SDS011;58428;49.478;10.986;2023-02-28T10:10:49;13.38;;;6.50;;
70814;SDS011;58428;49.478;10.986;2023-02-28T10:15:50;10.98;;;5.65;;
70814;SDS011;58428;49.478;10.986;2023-02-28T10:18:24;10.63;;;5.68;;
70814;SDS011;58428;49.478;10.986;2023-02-28T10:20:55;11.70;;;6.47;;
70814;SDS011;58428;49.478;10.986;2023-02-28T10:23:27;11.35;;;6.25;;
70814;SDS011;58428;49.478;10.986;2023-02-28T10:26:16;11.43;;;6.28;;
70814;SDS011;58428;49.478;10.986;2023-02-28T10:28:43;13.05;;;5.82;;
70814;SDS011;58428;49.478;10.986;2023-02-28T10:31:14;12.13;;;5.97;;
70814;SDS011;58428;49.478;10.986;2023-02-28T10:33:45;11.40;;;6.07;;
70814;SDS011;58428;49.478;10.986;2023-02-28T10:36:16;13.32;;;6.13;;
70814;SDS011;58428;49.478;10.986;2023-02-28T10:38:46;10.65;;;5.15;;
70814;SDS011;58428;49.478;10.986;2023-02-28T10:41:14;10.98;;;4.88;;
70814;SDS011;58428;49.478;10.986;2023-02-28T10:43:42;12.60;;;5.07;;
70814;SDS011;58428;49.478;10.986;2023-02-28T10:46:18;11.73;;;6.07;;
70814;SDS011;58428;49.478;10.986;2023-02-28T10:49:35;11.25;;;6.00;;
70814;SDS011;58428;49.478;10.986;2023-02-28T10:51:43;11.35;;;5.50;;
70814;SDS011;58428;49.478;10.986;2023-02-28T10:54:16;13.30;;;5.78;;
70814;SDS011;58428;49.478;10.986;2023-02-28T10:56:43;11.38;;;5.68;;
70814;SDS011;58428;49.478;10.986;2023-02-28T10:59:29;10.45;;;5.40;;
70814;SDS011;58428;49.478;10.986;2023-02-28T11:01:55;12.25;;;5.70;;
70814;SDS011;58428;49.478;10.986;2023-02-28T11:07:14;13.38;;;5.65;;
70814;SDS011;58428;49.478;10.986;2023-02-28T11:09:45;10.88;;;5.68;;
70814;SDS011;58428;49.478;10.986;2023-02-28T11:15:05;11.32;;;5.72;;
70814;SDS011;58428;49.478;10.986;2023-02-28T11:17:43;10.75;;;5.65;;
70814;SDS011;58428;49.478;10.986;2023-02-28T11:20:17;11.38;;;5.53;;
70814;SDS011;58428;49.478;10.986;2023-02-28T11:22:47;12.32;;;5.78;;
70814;SDS011;58428;49.478;10.986;2023-02-28T11:25:25;13.20;;;6.43;;
70814;SDS011;58428;49.478;10.986;2023-02-28T11:27:58;11.75;;;6.07;;
70814;SDS011;58428;49.478;10.986;2023-02-28T11:32:57;11.23;;;4.80;;
70814;SDS011;58428;49.478;10.986;2023-02-28T11:35:44;11.05;;;5.35;;
70814;SDS011;58428;49.478;10.986;2023-02-28T11:38:09;10.77;;;5.53;;
70814;SDS011;58428;49.478;10.986;2023-02-28T11:43:35;11.60;;;5.65;;
70814;SDS011;58428;49.478;10.986;2023-02-28T11:46:12;9.93;;;5.47;;
70814;SDS011;58428;49.478;10.986;2023-02-28T11:57:21;10.68;;;5.97;;
70814;SDS011;58428;49.478;10.986;2023-02-28T11:59:52;10.68;;;5.75;;
70814;SDS011;58428;49.478;10.986;2023-02-28T12:08:08;10.73;;;4.95;;
70814;SDS011;58428;49.478;10.986;2023-02-28T12:16:27;11.38;;;5.85;;
70814;SDS011;58428;49.478;10.986;2023-02-28T12:27:26;9.07;;;5.30;;
70814;SDS011;58428;49.478;10.986;2023-02-28T12:30:01;9.63;;;5.25;;
70814;SDS011;58428;49.478;10.986;2023-02-28T12:32:32;11.15;;;5.78;;
70814;SDS011;58428;49.478;10.986;2023-02-28T12:35:25;10.20;;;5.78;;
70814;SDS011;58428;49.478;10.986;2023-02-28T12:38:14;11.57;;;6.00;;
70814;SDS011;58428;49.478;10.986;2023-02-28T12:43:27;11.75;;;5.60;;
70814;SDS011;58428;49.478;10.986;2023-02-28T12:45:59;11.02;;;5.85;;
70814;SDS011;58428;49.478;10.986;2023-02-28T12:51:17;10.35;;;5.47;;
70814;SDS011;58428;49.478;10.986;2023-02-28T12:53:48;11.00;;;6.03;;
70814;SDS011;58428;49.478;10.986;2023-02-28T12:59:14;10.48;;;5.50;;
70814;SDS011;58428;49.478;10.986;2023-02-28T13:08:01;8.70;;;5.30;;
70814;SDS011;58428;49.478;10.986;2023-02-28T13:10:48;13.00;;;6.45;;
70814;SDS011;58428;49.478;10.986;2023-02-28T13:13:23;11.70;;;6.55;;
70814;SDS011;58428;49.478;10.986;2023-02-28T13:16:00;12.82;;;6.50;;
70814;SDS011;58428;49.478;10.986;2023-02-28T13:18:32;12.43;;;6.32;;
70814;SDS011;58428;49.478;10.986;2023-02-28T13:21:02;10.77;;;6.57;;
70814;SDS011;58428;49.478;10.986;2023-02-28T13:23:41;11.10;;;6.57;;
70814;SDS011;58428;49.478;10.986;2023-02-28T13:34:33;12.05;;;6.25;;
70814;SDS011;58428;49.478;10.986;2023-02-28T13:47:41;12.93;;;6.72;;
70814;SDS011;58428;49.478;10.986;2023-02-28T13:58:41;12.95;;;6.43;;
70814;SDS011;58428;49.478;10.986;2023-02-28T14:01:14;12.02;;;6.40;;
70814;SDS011;58428;49.478;10.986;2023-02-28T14:06:48;13.80;;;6.60;;
70814;SDS011;58428;49.478;10.986;2023-02-28T14:11:57;10.68;;;5.75;;
70814;SDS011;58428;49.478;10.986;2023-02-28T14:17:12;12.35;;;7.10;;
70814;SDS011;58428;49.478;10.986;2023-02-28T14:19:41;12.75;;;6.53;;
70814;SDS011;58428;49.478;10.986;2023-02-28T14:22:20;11.75;;;6.20;;
70814;SDS011;58428;49.478;10.986;2023-02-28T14:25:18;12.88;;;6.95;;
70814;SDS011;58428;49.478;10.986;2023-02-28T14:33:48;11.35;;;6.57;;
70814;SDS011;58428;49.478;10.986;2023-02-28T14:36:27;12.50;;;6.68;;
70814;SDS011;58428;49.478;10.986;2023-02-28T14:38:57;12.05;;;6.85;;
70814;SDS011;58428;49.478;10.986;2023-02-28T14:41:33;11.82;;;6.07;;
70814;SDS011;58428;49.478;10.986;2023-02-28T14:44:02;12.55;;;6.78;;
70814;SDS011;58428;49.478;10.986;2023-02-28T14:47:00;12.43;;;7.18;;
70814;SDS011;58428;49.478;10.986;2023-02-28T14:49:41;14.02;;;6.78;;
70814;SDS011;58428;49.478;10.986;2023-02-28T14:52:23;11.82;;;6.32;;
70814;SDS011;58428;49.478;10.986;2023-02-28T14:54:58;14.20;;;7.65;;
70814;SDS011;58428;49.478;10.986;2023-02-28T14:57:40;12.00;;;6.57;;
70814;SDS011;58428;49.478;10.986;2023-02-28T15:00:16;15.48;;;7.63;;
70814;SDS011;58428;49.478;10.986;2023-02-28T15:02:53;12.77;;;6.28;;
70814;SDS011;58428;49.478;10.986;2023-02-28T15:08:16;12.38;;;6.78;;
70814;SDS011;58428;49.478;10.986;2023-02-28T15:11:01;16.45;;;7.35;;
70814;SDS011;58428;49.478;10.986;2023-02-28T15:16:23;14.18;;;7.20;;
70814;SDS011;58428;49.478;10.986;2023-02-28T15:19:26;16.77;;;7.15;;
70814;SDS011;58428;49.478;10.986;2023-02-28T15:22:02;15.80;;;6.70;;
70814;SDS011;58428;49.478;10.986;2023-02-28T15:27:11;12.88;;;7.35;;
70814;SDS011;58428;49.478;10.986;2023-02-28T15:29:58;12.43;;;6.70;;
70814;SDS011;58428;49.478;10.986;2023-02-28T15:32:27;46.47;;;23.77;;
70814;SDS011;58428;49.478;10.986;2023-02-28T15:34:58;14.60;;;7.95;;
70814;SDS011;58428;49.478;10.986;2023-02-28T15:37:47;14.00;;;7.53;;
70814;SDS011;58428;49.478;10.986;2023-02-28T15:43:15;11.88;;;6.35;;
70814;SDS011;58428;49.478;10.986;2023-02-28T15:45:46;13.90;;;7.63;;
70814;SDS011;58428;49.478;10.986;2023-02-28T15:48:27;17.17;;;7.00;;
70814;SDS011;58428;49.478;10.986;2023-02-28T15:51:06;16.05;;;8.20;;
70814;SDS011;58428;49.478;10.986;2023-02-28T15:53:46;12.95;;;7.55;;
70814;SDS011;58428;49.478;10.986;2023-02-28T15:56:33;19.25;;;10.50;;
70814;SDS011;58428;49.478;10.986;2023-02-28T15:59:05;17.83;;;8.52;;
70814;SDS011;58428;49.478;10.986;2023-02-28T16:01:33;15.88;;;7.75;;
70814;SDS011;58428;49.478;10.986;2023-02-28T16:04:13;17.10;;;7.97;;
70814;SDS011;58428;49.478;10.986;2023-02-28T16:06:45;14.77;;;8.05;;
70814;SDS011;58428;49.478;10.986;2023-02-28T16:09:30;17.02;;;8.38;;
70814;SDS011;58428;49.478;10.986;2023-02-28T16:11:58;19.50;;;10.05;;
70814;SDS011;58428;49.478;10.986;2023-02-28T16:14:29;12.50;;;7.20;;
70814;SDS011;58428;49.478;10.986;2023-02-28T16:16:57;14.50;;;8.15;;
70814;SDS011;58428;49.478;10.986;2023-02-28T16:19:29;17.33;;;8.65;;
70814;SDS011;58428;49.478;10.986;2023-02-28T16:21:56;15.68;;;8.77;;
70814;SDS011;58428;49.478;10.986;2023-02-28T16:24:22;18.48;;;9.55;;
70814;SDS011;58428;49.478;10.986;2023-02-28T16:26:48;17.65;;;8.65;;
70814;SDS011;58428;49.478;10.986;2023-02-28T16:29:28;23.23;;;10.48;;
70814;SDS011;58428;49.478;10.986;2023-02-28T16:31:57;15.77;;;8.40;;
70814;SDS011;58428;49.478;10.986;2023-02-28T16:34:23;23.75;;;11.82;;
70814;SDS011;58428;49.478;10.986;2023-02-28T16:36:50;16.90;;;8.23;;
70814;SDS011;58428;49.478;10.986;2023-02-28T16:39:18;17.30;;;8.27;;
70814;SDS011;58428;49.478;10.986;2023-02-28T16:41:48;16.45;;;8.02;;
70814;SDS011;58428;49.478;10.986;2023-02-28T16:44:24;17.58;;;8.65;;
70814;SDS011;58428;49.478;10.986;2023-02-28T16:46:56;18.35;;;8.63;;
70814;SDS011;58428;49.478;10.986;2023-02-28T16:49:23;17.83;;;8.90;;
70814;SDS011;58428;49.478;10.986;2023-02-28T16:51:52;19.13;;;9.27;;
70814;SDS011;58428;49.478;10.986;2023-02-28T16:54:17;20.17;;;10.38;;
70814;SDS011;58428;49.478;10.986;2023-02-28T16:56:44;15.52;;;8.50;;
70814;SDS011;58428;49.478;10.986;2023-02-28T16:59:13;17.70;;;8.07;;
70814;SDS011;58428;49.478;10.986;2023-02-28T17:01:43;18.40;;;9.10;;
70814;SDS011;58428;49.478;10.986;2023-02-28T17:04:09;16.85;;;8.43;;
70814;SDS011;58428;49.478;10.986;2023-02-28T17:06:36;16.52;;;7.53;;
70814;SDS011;58428;49.478;10.986;2023-02-28T17:09:02;16.45;;;8.25;;
70814;SDS011;58428;49.478;10.986;2023-02-28T17:11:35;13.18;;;7.70;;
70814;SDS011;58428;49.478;10.986;2023-02-28T17:14:01;15.73;;;7.80;;
70814;SDS011;58428;49.478;10.986;2023-02-28T17:16:28;17.38;;;8.20;;
70814;SDS011;58428;49.478;10.986;2023-02-28T17:18:57;16.67;;;9.00;;
70814;SDS011;58428;49.478;10.986;2023-02-28T17:21:25;17.45;;;8.70;;
70814;SDS011;58428;49.478;10.986;2023-02-28T17:23:50;18.50;;;10.13;;
70814;SDS011;58428;49.478;10.986;2023-02-28T17:26:17;19.85;;;10.07;;
70814;SDS011;58428;49.478;10.986;2023-02-28T17:28:49;15.73;;;8.98;;
70814;SDS011;58428;49.478;10.986;2023-02-28T17:31:16;21.30;;;10.70;;
70814;SDS011;58428;49.478;10.986;2023-02-28T17:33:42;17.13;;;8.43;;
70814;SDS011;58428;49.478;10.986;2023-02-28T17:36:16;14.32;;;8.32;;
70814;SDS011;58428;49.478;10.986;2023-02-28T17:38:46;19.67;;;9.60;;
70814;SDS011;58428;49.478;10.986;2023-02-28T17:41:13;14.43;;;7.30;;
70814;SDS011;58428;49.478;10.986;2023-02-28T17:43:39;16.10;;;8.27;;
70814;SDS011;58428;49.478;10.986;2023-02-28T17:46:07;53.08;;;25.08;;
70814;SDS011;58428;49.478;10.986;2023-02-28T17:48:41;23.58;;;12.32;;
70814;SDS011;58428;49.478;10.986;2023-02-28T17:51:08;24.05;;;12.88;;
70814;SDS011;58428;49.478;10.986;2023-02-28T17:53:36;22.60;;;11.70;;
70814;SDS011;58428;49.478;10.986;2023-02-28T17:56:02;22.38;;;11.77;;
70814;SDS011;58428;49.478;10.986;2023-02-28T17:58:28;18.35;;;10.13;;
70814;SDS011;58428;49.478;10.986;2023-02-28T18:00:56;21.20;;;10.65;;
70814;SDS011;58428;49.478;10.986;2023-02-28T18:03:22;22.73;;;10.40;;
70814;SDS011;58428;49.478;10.986;2023-02-28T18:05:49;23.08;;;10.38;;
70814;SDS011;58428;49.478;10.986;2023-02-28T18:08:15;17.55;;;10.20;;
70814;SDS011;58428;49.478;10.986;2023-02-28T18:10:41;19.83;;;10.18;;
70814;SDS011;58428;49.478;10.986;2023-02-28T18:13:07;25.63;;;12.02;;